sensor_id;sensor_type;location;lat;lon;timestamp;P1;durP1;ratioP1;P2;durP2;ratioP2
76357;SDS011;65185;21.060;105.826;2024-03-29T00:00:06;111.03;;;70.55;;
76357;SDS011;65185;21.060;105.826;2024-03-29T00:02:34;120.85;;;76.82;;
76357;SDS011;65185;21.060;105.826;2024-03-29T00:05:01;117.22;;;73.70;;
76357;SDS011;65185;21.060;105.826;2024-03-29T00:07:29;112.78;;;72.85;;
76357;SDS011;65185;21.060;105.826;2024-03-29T00:09:56;112.47;;;71.72;;
76357;SDS011;65185;21.060;105.826;2024-03-29T00:12:23;106.72;;;67.28;;
76357;SDS011;65185;21.060;105.826;2024-03-29T00:14:50;110.88;;;73.72;;
76357;SDS011;65185;21.060;105.826;2024-03-29T00:17:17;102.65;;;66.68;;
76357;SDS011;65185;21.060;105.826;2024-03-29T00:19:44;102.53;;;68.28;;
76357;SDS011;65185;21.060;105.826;2024-03-29T00:22:11;100.60;;;62.50;;
76357;SDS011;65185;21.060;105.826;2024-03-29T00:24:38;100.57;;;63.42;;
76357;SDS011;65185;21.060;105.826;2024-03-29T00:27:05;105.38;;;66.28;;
76357;SDS011;65185;21.060;105.826;2024-03-29T00:29:32;97.57;;;64.07;;
76357;SDS011;65185;21.060;105.826;2024-03-29T00:31:59;100.60;;;65.00;;
76357;SDS011;65185;21.060;105.826;2024-03-29T00:34:26;95.28;;;61.70;;
76357;SDS011;65185;21.060;105.826;2024-03-29T00:36:53;94.57;;;60.85;;
76357;SDS011;65185;21.060;105.826;2024-03-29T00:39:20;89.55;;;58.00;;
76357;SDS011;65185;21.060;105.826;2024-03-29T00:41:46;90.15;;;56.97;;
76357;SDS011;65185;21.060;105.826;2024-03-29T00:44:14;88.65;;;57.45;;
76357;SDS011;65185;21.060;105.826;2024-03-29T00:46:41;88.78;;;59.10;;
76357;SDS011;65185;21.060;105.826;2024-03-29T00:49:08;92.05;;;63.03;;
76357;SDS011;65185;21.060;105.826;2024-03-29T00:51:35;95.30;;;67.03;;
76357;SDS011;65185;21.060;105.826;2024-03-29T00:54:02;97.20;;;70.22;;
76357;SDS011;65185;21.060;105.826;2024-03-29T00:56:29;91.00;;;64.95;;
76357;SDS011;65185;21.060;105.826;2024-03-29T00:58:56;91.90;;;62.15;;
76357;SDS011;65185;21.060;105.826;2024-03-29T01:01:23;88.97;;;61.88;;
76357;SDS011;65185;21.060;105.826;2024-03-29T01:03:50;85.68;;;57.85;;
76357;SDS011;65185;21.060;105.826;2024-03-29T01:06:17;86.20;;;56.97;;
76357;SDS011;65185;21.060;105.826;2024-03-29T01:08:44;84.18;;;54.05;;
76357;SDS011;65185;21.060;105.826;2024-03-29T01:11:11;78.38;;;52.63;;
76357;SDS011;65185;21.060;105.826;2024-03-29T01:13:38;76.63;;;48.60;;
76357;SDS011;65185;21.060;105.826;2024-03-29T01:16:05;74.43;;;47.92;;
76357;SDS011;65185;21.060;105.826;2024-03-29T01:18:32;78.63;;;45.80;;
76357;SDS011;65185;21.060;105.826;2024-03-29T01:20:59;72.03;;;45.53;;
76357;SDS011;65185;21.060;105.826;2024-03-29T01:23:26;71.55;;;43.38;;
76357;SDS011;65185;21.060;105.826;2024-03-29T01:25:53;75.05;;;45.67;;
76357;SDS011;65185;21.060;105.826;2024-03-29T01:28:20;69.50;;;43.88;;
76357;SDS011;65185;21.060;105.826;2024-03-29T01:30:54;76.40;;;44.47;;
76357;SDS011;65185;21.060;105.826;2024-03-29T01:33:21;76.65;;;46.40;;
76357;SDS011;65185;21.060;105.826;2024-03-29T01:35:48;77.20;;;45.95;;
76357;SDS011;65185;21.060;105.826;2024-03-29T01:38:15;74.65;;;44.03;;
76357;SDS011;65185;21.060;105.826;2024-03-29T01:40:42;76.03;;;45.97;;
76357;SDS011;65185;21.060;105.826;2024-03-29T01:43:09;81.05;;;48.25;;
76357;SDS011;65185;21.060;105.826;2024-03-29T01:45:39;79.55;;;47.63;;
76357;SDS011;65185;21.060;105.826;2024-03-29T01:48:11;79.82;;;48.20;;
76357;SDS011;65185;21.060;105.826;2024-03-29T01:50:39;81.03;;;50.13;;
76357;SDS011;65185;21.060;105.826;2024-03-29T01:53:06;84.78;;;51.95;;
76357;SDS011;65185;21.060;105.826;2024-03-29T01:55:35;82.53;;;50.47;;
76357;SDS011;65185;21.060;105.826;2024-03-29T01:58:02;83.05;;;50.00;;
76357;SDS011;65185;21.060;105.826;2024-03-29T02:00:33;84.50;;;49.22;;
76357;SDS011;65185;21.060;105.826;2024-03-29T02:03:02;82.80;;;49.92;;
76357;SDS011;65185;21.060;105.826;2024-03-29T02:05:37;79.03;;;48.92;;
76357;SDS011;65185;21.060;105.826;2024-03-29T02:08:10;79.00;;;47.95;;
76357;SDS011;65185;21.060;105.826;2024-03-29T02:10:37;83.03;;;48.47;;
76357;SDS011;65185;21.060;105.826;2024-03-29T02:13:04;81.30;;;47.55;;
76357;SDS011;65185;21.060;105.826;2024-03-29T02:15:31;91.43;;;53.10;;
76357;SDS011;65185;21.060;105.826;2024-03-29T02:17:58;81.65;;;51.25;;
76357;SDS011;65185;21.060;105.826;2024-03-29T02:20:25;80.13;;;48.78;;
76357;SDS011;65185;21.060;105.826;2024-03-29T02:23:13;80.32;;;48.72;;
76357;SDS011;65185;21.060;105.826;2024-03-29T02:25:45;90.75;;;53.13;;
76357;SDS011;65185;21.060;105.826;2024-03-29T02:28:12;99.78;;;56.47;;
76357;SDS011;65185;21.060;105.826;2024-03-29T02:30:40;94.88;;;55.08;;
76357;SDS011;65185;21.060;105.826;2024-03-29T02:33:07;91.47;;;52.80;;
76357;SDS011;65185;21.060;105.826;2024-03-29T02:35:34;88.40;;;53.47;;
76357;SDS011;65185;21.060;105.826;2024-03-29T02:38:01;84.57;;;50.38;;
76357;SDS011;65185;21.060;105.826;2024-03-29T02:40:28;85.82;;;52.67;;
76357;SDS011;65185;21.060;105.826;2024-03-29T02:42:55;88.57;;;53.72;;
76357;SDS011;65185;21.060;105.826;2024-03-29T02:45:22;83.38;;;52.50;;
76357;SDS011;65185;21.060;105.826;2024-03-29T02:47:49;87.72;;;53.88;;
76357;SDS011;65185;21.060;105.826;2024-03-29T02:50:16;94.70;;;57.15;;
76357;SDS011;65185;21.060;105.826;2024-03-29T02:52:43;92.93;;;55.15;;
76357;SDS011;65185;21.060;105.826;2024-03-29T02:55:10;94.18;;;56.42;;
76357;SDS011;65185;21.060;105.826;2024-03-29T02:57:37;98.20;;;59.70;;
76357;SDS011;65185;21.060;105.826;2024-03-29T03:00:05;94.88;;;56.20;;
76357;SDS011;65185;21.060;105.826;2024-03-29T03:02:36;94.68;;;56.92;;
76357;SDS011;65185;21.060;105.826;2024-03-29T03:05:07;100.45;;;59.88;;
76357;SDS011;65185;21.060;105.826;2024-03-29T03:07:35;94.95;;;57.97;;
76357;SDS011;65185;21.060;105.826;2024-03-29T03:10:20;90.20;;;56.78;;
76357;SDS011;65185;21.060;105.826;2024-03-29T03:13:05;96.28;;;59.20;;
76357;SDS011;65185;21.060;105.826;2024-03-29T03:15:32;97.40;;;60.00;;
76357;SDS011;65185;21.060;105.826;2024-03-29T03:17:59;94.35;;;56.17;;
76357;SDS011;65185;21.060;105.826;2024-03-29T03:20:26;91.40;;;54.75;;
76357;SDS011;65185;21.060;105.826;2024-03-29T03:22:57;92.95;;;55.92;;
76357;SDS011;65185;21.060;105.826;2024-03-29T03:25:25;95.70;;;55.05;;
76357;SDS011;65185;21.060;105.826;2024-03-29T03:27:55;94.50;;;57.13;;
76357;SDS011;65185;21.060;105.826;2024-03-29T03:30:21;91.68;;;54.70;;
76357;SDS011;65185;21.060;105.826;2024-03-29T03:32:49;89.43;;;52.72;;
76357;SDS011;65185;21.060;105.826;2024-03-29T03:35:16;93.35;;;55.00;;
76357;SDS011;65185;21.060;105.826;2024-03-29T03:37:43;90.45;;;54.75;;
76357;SDS011;65185;21.060;105.826;2024-03-29T03:40:10;92.72;;;54.65;;
76357;SDS011;65185;21.060;105.826;2024-03-29T03:42:37;90.82;;;54.38;;
76357;SDS011;65185;21.060;105.826;2024-03-29T03:45:04;93.90;;;56.58;;
76357;SDS011;65185;21.060;105.826;2024-03-29T03:47:31;104.65;;;59.88;;
76357;SDS011;65185;21.060;105.826;2024-03-29T03:49:58;106.07;;;60.85;;
76357;SDS011;65185;21.060;105.826;2024-03-29T03:52:25;100.55;;;60.08;;
76357;SDS011;65185;21.060;105.826;2024-03-29T03:54:52;100.90;;;58.03;;
76357;SDS011;65185;21.060;105.826;2024-03-29T03:57:19;97.10;;;57.45;;
76357;SDS011;65185;21.060;105.826;2024-03-29T03:59:48;98.05;;;58.38;;
76357;SDS011;65185;21.060;105.826;2024-03-29T04:02:16;114.57;;;66.22;;
76357;SDS011;65185;21.060;105.826;2024-03-29T04:04:47;118.55;;;67.60;;
76357;SDS011;65185;21.060;105.826;2024-03-29T04:07:14;111.20;;;65.00;;
76357;SDS011;65185;21.060;105.826;2024-03-29T04:09:41;114.05;;;64.78;;
76357;SDS011;65185;21.060;105.826;2024-03-29T04:12:08;108.93;;;63.17;;
76357;SDS011;65185;21.060;105.826;2024-03-29T04:14:35;106.93;;;63.00;;
76357;SDS011;65185;21.060;105.826;2024-03-29T04:17:02;107.40;;;62.80;;
76357;SDS011;65185;21.060;105.826;2024-03-29T04:19:29;105.32;;;62.25;;
76357;SDS011;65185;21.060;105.826;2024-03-29T04:21:56;103.55;;;61.40;;
76357;SDS011;65185;21.060;105.826;2024-03-29T04:24:23;113.53;;;65.10;;
76357;SDS011;65185;21.060;105.826;2024-03-29T04:26:50;115.78;;;66.07;;
76357;SDS011;65185;21.060;105.826;2024-03-29T04:29:17;111.75;;;63.65;;
76357;SDS011;65185;21.060;105.826;2024-03-29T04:31:47;105.43;;;61.78;;
76357;SDS011;65185;21.060;105.826;2024-03-29T04:34:15;106.55;;;63.00;;
76357;SDS011;65185;21.060;105.826;2024-03-29T04:39:10;107.70;;;64.53;;
76357;SDS011;65185;21.060;105.826;2024-03-29T04:41:37;111.82;;;66.53;;
76357;SDS011;65185;21.060;105.826;2024-03-29T04:44:04;110.10;;;64.55;;
76357;SDS011;65185;21.060;105.826;2024-03-29T04:48:59;104.63;;;63.17;;
76357;SDS011;65185;21.060;105.826;2024-03-29T04:51:26;114.22;;;67.05;;
76357;SDS011;65185;21.060;105.826;2024-03-29T04:53:53;115.60;;;67.18;;
76357;SDS011;65185;21.060;105.826;2024-03-29T04:56:21;119.13;;;65.60;;
76357;SDS011;65185;21.060;105.826;2024-03-29T04:58:48;106.88;;;65.10;;
76357;SDS011;65185;21.060;105.826;2024-03-29T05:01:15;114.20;;;64.28;;
76357;SDS011;65185;21.060;105.826;2024-03-29T05:03:42;99.47;;;59.55;;
76357;SDS011;65185;21.060;105.826;2024-03-29T05:06:09;100.75;;;59.33;;
76357;SDS011;65185;21.060;105.826;2024-03-29T05:08:36;101.75;;;60.17;;
76357;SDS011;65185;21.060;105.826;2024-03-29T05:11:03;103.47;;;59.88;;
76357;SDS011;65185;21.060;105.826;2024-03-29T05:13:31;95.65;;;58.40;;
76357;SDS011;65185;21.060;105.826;2024-03-29T05:15:58;91.57;;;56.55;;
76357;SDS011;65185;21.060;105.826;2024-03-29T05:18:25;93.38;;;55.97;;
76357;SDS011;65185;21.060;105.826;2024-03-29T05:20:52;98.53;;;57.35;;
76357;SDS011;65185;21.060;105.826;2024-03-29T05:23:19;91.47;;;54.28;;
76357;SDS011;65185;21.060;105.826;2024-03-29T05:25:46;88.03;;;54.08;;
76357;SDS011;65185;21.060;105.826;2024-03-29T05:28:15;94.57;;;55.72;;
76357;SDS011;65185;21.060;105.826;2024-03-29T05:30:42;86.05;;;52.45;;
76357;SDS011;65185;21.060;105.826;2024-03-29T05:33:10;85.80;;;53.17;;
76357;SDS011;65185;21.060;105.826;2024-03-29T05:35:37;81.72;;;50.03;;
76357;SDS011;65185;21.060;105.826;2024-03-29T05:38:04;80.82;;;48.63;;
76357;SDS011;65185;21.060;105.826;2024-03-29T05:40:32;75.40;;;47.10;;
76357;SDS011;65185;21.060;105.826;2024-03-29T05:42:59;73.10;;;44.70;;
76357;SDS011;65185;21.060;105.826;2024-03-29T05:45:27;65.50;;;39.17;;
76357;SDS011;65185;21.060;105.826;2024-03-29T05:47:57;55.90;;;36.20;;
76357;SDS011;65185;21.060;105.826;2024-03-29T05:50:25;58.22;;;34.20;;
76357;SDS011;65185;21.060;105.826;2024-03-29T05:52:52;56.97;;;33.53;;
76357;SDS011;65185;21.060;105.826;2024-03-29T05:55:20;54.47;;;33.75;;
76357;SDS011;65185;21.060;105.826;2024-03-29T05:57:47;58.30;;;34.65;;
76357;SDS011;65185;21.060;105.826;2024-03-29T06:00:14;56.03;;;36.00;;
76357;SDS011;65185;21.060;105.826;2024-03-29T06:02:42;50.72;;;31.88;;
76357;SDS011;65185;21.060;105.826;2024-03-29T06:05:13;39.58;;;25.13;;
76357;SDS011;65185;21.060;105.826;2024-03-29T06:07:40;30.73;;;19.17;;
76357;SDS011;65185;21.060;105.826;2024-03-29T06:10:07;26.27;;;13.98;;
76357;SDS011;65185;21.060;105.826;2024-03-29T06:12:36;17.55;;;11.02;;
76357;SDS011;65185;21.060;105.826;2024-03-29T06:15:06;14.23;;;7.50;;
76357;SDS011;65185;21.060;105.826;2024-03-29T06:17:51;14.18;;;6.00;;
76357;SDS011;65185;21.060;105.826;2024-03-29T06:20:19;13.02;;;5.55;;
76357;SDS011;65185;21.060;105.826;2024-03-29T06:22:46;9.90;;;4.53;;
76357;SDS011;65185;21.060;105.826;2024-03-29T06:25:13;11.18;;;4.38;;
76357;SDS011;65185;21.060;105.826;2024-03-29T06:27:41;12.55;;;4.38;;
76357;SDS011;65185;21.060;105.826;2024-03-29T06:30:13;9.57;;;4.88;;
76357;SDS011;65185;21.060;105.826;2024-03-29T06:32:44;10.20;;;5.20;;
76357;SDS011;65185;21.060;105.826;2024-03-29T06:35:12;12.98;;;6.68;;
76357;SDS011;65185;21.060;105.826;2024-03-29T06:37:39;13.38;;;7.38;;
76357;SDS011;65185;21.060;105.826;2024-03-29T06:40:08;12.95;;;6.97;;
76357;SDS011;65185;21.060;105.826;2024-03-29T06:42:35;12.98;;;7.28;;
76357;SDS011;65185;21.060;105.826;2024-03-29T06:45:02;12.20;;;6.65;;
76357;SDS011;65185;21.060;105.826;2024-03-29T06:47:31;13.18;;;6.53;;
76357;SDS011;65185;21.060;105.826;2024-03-29T06:49:58;13.15;;;6.88;;
76357;SDS011;65185;21.060;105.826;2024-03-29T06:52:25;12.07;;;6.45;;
76357;SDS011;65185;21.060;105.826;2024-03-29T06:54:52;14.57;;;6.47;;
76357;SDS011;65185;21.060;105.826;2024-03-29T06:57:19;12.52;;;6.88;;
76357;SDS011;65185;21.060;105.826;2024-03-29T06:59:55;14.75;;;7.65;;
76357;SDS011;65185;21.060;105.826;2024-03-29T07:02:22;16.05;;;9.93;;
76357;SDS011;65185;21.060;105.826;2024-03-29T07:04:49;15.85;;;9.82;;
76357;SDS011;65185;21.060;105.826;2024-03-29T07:07:16;17.30;;;11.18;;
76357;SDS011;65185;21.060;105.826;2024-03-29T07:09:43;17.65;;;11.55;;
76357;SDS011;65185;21.060;105.826;2024-03-29T07:12:10;18.20;;;11.63;;
76357;SDS011;65185;21.060;105.826;2024-03-29T07:14:37;17.30;;;11.20;;
76357;SDS011;65185;21.060;105.826;2024-03-29T07:17:04;15.40;;;10.40;;
76357;SDS011;65185;21.060;105.826;2024-03-29T07:19:31;15.40;;;10.18;;
76357;SDS011;65185;21.060;105.826;2024-03-29T07:21:58;14.52;;;8.60;;
76357;SDS011;65185;21.060;105.826;2024-03-29T07:24:25;12.73;;;8.18;;
76357;SDS011;65185;21.060;105.826;2024-03-29T07:26:53;14.85;;;8.10;;
76357;SDS011;65185;21.060;105.826;2024-03-29T07:29:20;11.65;;;7.35;;
76357;SDS011;65185;21.060;105.826;2024-03-29T07:31:47;13.63;;;7.38;;
76357;SDS011;65185;21.060;105.826;2024-03-29T07:34:14;11.20;;;6.78;;
76357;SDS011;65185;21.060;105.826;2024-03-29T07:36:41;12.43;;;7.50;;
76357;SDS011;65185;21.060;105.826;2024-03-29T07:39:08;13.25;;;7.70;;
76357;SDS011;65185;21.060;105.826;2024-03-29T07:41:35;12.82;;;8.00;;
76357;SDS011;65185;21.060;105.826;2024-03-29T07:44:02;14.30;;;9.50;;
76357;SDS011;65185;21.060;105.826;2024-03-29T07:46:33;13.18;;;9.13;;
76357;SDS011;65185;21.060;105.826;2024-03-29T07:49:01;16.30;;;10.05;;
76357;SDS011;65185;21.060;105.826;2024-03-29T07:51:28;18.35;;;12.35;;
76357;SDS011;65185;21.060;105.826;2024-03-29T07:53:56;17.58;;;11.27;;
76357;SDS011;65185;21.060;105.826;2024-03-29T07:56:23;15.48;;;10.70;;
76357;SDS011;65185;21.060;105.826;2024-03-29T07:58:51;16.00;;;10.68;;
76357;SDS011;65185;21.060;105.826;2024-03-29T08:01:22;18.77;;;11.23;;
76357;SDS011;65185;21.060;105.826;2024-03-29T08:03:50;22.65;;;14.90;;
76357;SDS011;65185;21.060;105.826;2024-03-29T08:06:19;21.30;;;13.98;;
76357;SDS011;65185;21.060;105.826;2024-03-29T08:08:49;18.60;;;11.93;;
76357;SDS011;65185;21.060;105.826;2024-03-29T08:11:19;16.75;;;11.25;;
76357;SDS011;65185;21.060;105.826;2024-03-29T08:13:46;18.75;;;12.68;;
76357;SDS011;65185;21.060;105.826;2024-03-29T08:16:13;21.52;;;13.27;;
76357;SDS011;65185;21.060;105.826;2024-03-29T08:18:42;23.80;;;14.55;;
76357;SDS011;65185;21.060;105.826;2024-03-29T08:21:11;22.58;;;15.27;;
76357;SDS011;65185;21.060;105.826;2024-03-29T08:23:41;28.10;;;19.50;;
76357;SDS011;65185;21.060;105.826;2024-03-29T08:26:12;29.42;;;19.33;;
76357;SDS011;65185;21.060;105.826;2024-03-29T08:28:40;29.38;;;19.73;;
76357;SDS011;65185;21.060;105.826;2024-03-29T08:31:07;31.80;;;20.13;;
76357;SDS011;65185;21.060;105.826;2024-03-29T08:33:37;30.42;;;20.17;;
76357;SDS011;65185;21.060;105.826;2024-03-29T08:36:05;28.98;;;19.73;;
76357;SDS011;65185;21.060;105.826;2024-03-29T08:38:34;28.48;;;18.50;;
76357;SDS011;65185;21.060;105.826;2024-03-29T08:41:02;31.63;;;20.02;;
76357;SDS011;65185;21.060;105.826;2024-03-29T08:43:29;30.55;;;19.35;;
76357;SDS011;65185;21.060;105.826;2024-03-29T08:45:56;27.40;;;18.33;;
76357;SDS011;65185;21.060;105.826;2024-03-29T08:48:23;25.92;;;18.75;;
76357;SDS011;65185;21.060;105.826;2024-03-29T08:50:50;29.35;;;19.20;;
76357;SDS011;65185;21.060;105.826;2024-03-29T08:53:17;27.52;;;18.20;;
76357;SDS011;65185;21.060;105.826;2024-03-29T08:55:45;24.00;;;16.35;;
76357;SDS011;65185;21.060;105.826;2024-03-29T08:58:16;25.17;;;17.02;;
76357;SDS011;65185;21.060;105.826;2024-03-29T09:00:52;27.17;;;18.15;;
76357;SDS011;65185;21.060;105.826;2024-03-29T09:05:48;26.77;;;17.77;;
76357;SDS011;65185;21.060;105.826;2024-03-29T09:08:16;29.33;;;19.75;;
76357;SDS011;65185;21.060;105.826;2024-03-29T09:10:44;32.00;;;20.88;;
76357;SDS011;65185;21.060;105.826;2024-03-29T09:13:11;33.97;;;21.42;;
76357;SDS011;65185;21.060;105.826;2024-03-29T09:15:38;33.70;;;21.85;;
76357;SDS011;65185;21.060;105.826;2024-03-29T09:18:05;35.35;;;22.90;;
76357;SDS011;65185;21.060;105.826;2024-03-29T09:20:36;30.30;;;21.75;;
76357;SDS011;65185;21.060;105.826;2024-03-29T09:23:03;33.28;;;21.88;;
76357;SDS011;65185;21.060;105.826;2024-03-29T09:25:31;31.50;;;20.80;;
76357;SDS011;65185;21.060;105.826;2024-03-29T09:27:58;32.30;;;21.20;;
76357;SDS011;65185;21.060;105.826;2024-03-29T09:30:25;29.50;;;21.60;;
76357;SDS011;65185;21.060;105.826;2024-03-29T09:32:52;40.03;;;26.02;;
76357;SDS011;65185;21.060;105.826;2024-03-29T09:35:19;41.65;;;26.52;;
76357;SDS011;65185;21.060;105.826;2024-03-29T09:37:46;47.65;;;29.90;;
76357;SDS011;65185;21.060;105.826;2024-03-29T09:40:13;45.28;;;28.80;;
76357;SDS011;65185;21.060;105.826;2024-03-29T09:42:40;44.53;;;29.13;;
76357;SDS011;65185;21.060;105.826;2024-03-29T09:47:37;50.47;;;30.13;;
76357;SDS011;65185;21.060;105.826;2024-03-29T09:50:06;46.88;;;28.33;;
76357;SDS011;65185;21.060;105.826;2024-03-29T09:52:34;45.13;;;30.17;;
76357;SDS011;65185;21.060;105.826;2024-03-29T09:55:03;41.95;;;28.40;;
76357;SDS011;65185;21.060;105.826;2024-03-29T09:57:32;42.35;;;28.55;;
76357;SDS011;65185;21.060;105.826;2024-03-29T09:59:59;45.70;;;29.42;;
76357;SDS011;65185;21.060;105.826;2024-03-29T10:02:27;38.95;;;24.80;;
76357;SDS011;65185;21.060;105.826;2024-03-29T10:04:58;38.08;;;24.02;;
76357;SDS011;65185;21.060;105.826;2024-03-29T10:07:29;34.80;;;24.45;;
76357;SDS011;65185;21.060;105.826;2024-03-29T10:09:57;34.88;;;25.08;;
76357;SDS011;65185;21.060;105.826;2024-03-29T10:12:27;44.08;;;26.10;;
76357;SDS011;65185;21.060;105.826;2024-03-29T10:14:55;41.30;;;28.27;;
76357;SDS011;65185;21.060;105.826;2024-03-29T10:17:44;41.60;;;27.00;;
76357;SDS011;65185;21.060;105.826;2024-03-29T10:20:11;40.60;;;27.65;;
76357;SDS011;65185;21.060;105.826;2024-03-29T10:22:41;40.38;;;27.25;;
76357;SDS011;65185;21.060;105.826;2024-03-29T10:25:15;37.88;;;27.63;;
76357;SDS011;65185;21.060;105.826;2024-03-29T10:27:42;40.20;;;29.00;;
76357;SDS011;65185;21.060;105.826;2024-03-29T10:30:09;42.90;;;29.52;;
76357;SDS011;65185;21.060;105.826;2024-03-29T10:32:42;40.28;;;28.30;;
76357;SDS011;65185;21.060;105.826;2024-03-29T10:35:10;40.67;;;29.55;;
76357;SDS011;65185;21.060;105.826;2024-03-29T10:37:37;46.95;;;30.05;;
76357;SDS011;65185;21.060;105.826;2024-03-29T10:40:06;44.05;;;28.98;;
76357;SDS011;65185;21.060;105.826;2024-03-29T10:42:41;47.80;;;31.95;;
76357;SDS011;65185;21.060;105.826;2024-03-29T10:45:08;52.63;;;33.90;;
76357;SDS011;65185;21.060;105.826;2024-03-29T10:47:35;59.20;;;36.63;;
76357;SDS011;65185;21.060;105.826;2024-03-29T10:50:03;55.15;;;36.78;;
76357;SDS011;65185;21.060;105.826;2024-03-29T10:52:31;54.45;;;37.17;;
76357;SDS011;65185;21.060;105.826;2024-03-29T10:55:00;50.72;;;35.75;;
76357;SDS011;65185;21.060;105.826;2024-03-29T10:57:27;52.05;;;35.58;;
76357;SDS011;65185;21.060;105.826;2024-03-29T11:03:01;53.78;;;37.03;;
76357;SDS011;65185;21.060;105.826;2024-03-29T11:05:46;56.30;;;38.35;;
76357;SDS011;65185;21.060;105.826;2024-03-29T11:08:16;48.80;;;35.47;;
76357;SDS011;65185;21.060;105.826;2024-03-29T11:10:54;52.90;;;36.58;;
76357;SDS011;65185;21.060;105.826;2024-03-29T11:16:11;55.78;;;37.13;;
76357;SDS011;65185;21.060;105.826;2024-03-29T11:18:38;50.03;;;35.25;;
76357;SDS011;65185;21.060;105.826;2024-03-29T11:21:06;47.95;;;35.08;;
76357;SDS011;65185;21.060;105.826;2024-03-29T11:23:35;49.97;;;35.30;;
76357;SDS011;65185;21.060;105.826;2024-03-29T11:26:02;55.97;;;37.05;;
76357;SDS011;65185;21.060;105.826;2024-03-29T11:28:34;49.75;;;34.95;;
76357;SDS011;65185;21.060;105.826;2024-03-29T11:36:00;53.38;;;36.72;;
76357;SDS011;65185;21.060;105.826;2024-03-29T11:38:33;52.83;;;37.80;;
76357;SDS011;65185;21.060;105.826;2024-03-29T11:43:32;52.03;;;34.95;;
76357;SDS011;65185;21.060;105.826;2024-03-29T11:46:01;52.15;;;34.97;;
76357;SDS011;65185;21.060;105.826;2024-03-29T11:48:29;52.15;;;35.72;;
76357;SDS011;65185;21.060;105.826;2024-03-29T11:50:59;55.63;;;36.00;;
76357;SDS011;65185;21.060;105.826;2024-03-29T11:55:59;53.35;;;36.78;;
76357;SDS011;65185;21.060;105.826;2024-03-29T11:58:28;58.53;;;40.20;;
76357;SDS011;65185;21.060;105.826;2024-03-29T12:00:56;58.80;;;40.38;;
76357;SDS011;65185;21.060;105.826;2024-03-29T12:03:25;56.63;;;38.90;;
76357;SDS011;65185;21.060;105.826;2024-03-29T12:05:53;54.47;;;37.15;;
76357;SDS011;65185;21.060;105.826;2024-03-29T12:08:31;54.60;;;37.40;;
76357;SDS011;65185;21.060;105.826;2024-03-29T12:10:59;55.30;;;37.83;;
76357;SDS011;65185;21.060;105.826;2024-03-29T12:13:27;60.03;;;41.42;;
76357;SDS011;65185;21.060;105.826;2024-03-29T12:15:55;57.25;;;38.75;;
76357;SDS011;65185;21.060;105.826;2024-03-29T12:18:23;57.67;;;38.85;;
76357;SDS011;65185;21.060;105.826;2024-03-29T12:20:51;58.28;;;41.42;;
76357;SDS011;65185;21.060;105.826;2024-03-29T12:23:20;58.55;;;41.97;;
76357;SDS011;65185;21.060;105.826;2024-03-29T12:25:48;60.75;;;41.75;;
76357;SDS011;65185;21.060;105.826;2024-03-29T12:28:17;70.15;;;45.88;;
76357;SDS011;65185;21.060;105.826;2024-03-29T12:30:45;61.90;;;41.20;;
76357;SDS011;65185;21.060;105.826;2024-03-29T12:35:42;68.93;;;44.17;;
76357;SDS011;65185;21.060;105.826;2024-03-29T12:38:12;67.55;;;45.00;;
76357;SDS011;65185;21.060;105.826;2024-03-29T12:40:43;73.93;;;46.95;;
76357;SDS011;65185;21.060;105.826;2024-03-29T12:43:13;65.47;;;45.30;;
76357;SDS011;65185;21.060;105.826;2024-03-29T12:45:43;65.10;;;44.60;;
76357;SDS011;65185;21.060;105.826;2024-03-29T12:48:10;58.70;;;40.92;;
76357;SDS011;65185;21.060;105.826;2024-03-29T12:50:43;61.92;;;44.45;;
76357;SDS011;65185;21.060;105.826;2024-03-29T12:53:12;58.35;;;41.05;;
76357;SDS011;65185;21.060;105.826;2024-03-29T12:55:41;56.25;;;39.28;;
76357;SDS011;65185;21.060;105.826;2024-03-29T12:58:13;54.28;;;36.85;;
76357;SDS011;65185;21.060;105.826;2024-03-29T13:00:42;50.30;;;35.92;;
76357;SDS011;65185;21.060;105.826;2024-03-29T13:03:09;51.78;;;34.20;;
76357;SDS011;65185;21.060;105.826;2024-03-29T13:05:37;47.08;;;34.00;;
76357;SDS011;65185;21.060;105.826;2024-03-29T13:08:09;59.70;;;38.92;;
76357;SDS011;65185;21.060;105.826;2024-03-29T13:10:37;55.08;;;37.72;;
76357;SDS011;65185;21.060;105.826;2024-03-29T13:13:05;54.08;;;36.38;;
76357;SDS011;65185;21.060;105.826;2024-03-29T13:15:36;53.63;;;35.60;;
76357;SDS011;65185;21.060;105.826;2024-03-29T13:18:04;54.65;;;37.42;;
76357;SDS011;65185;21.060;105.826;2024-03-29T13:20:33;56.42;;;38.05;;
76357;SDS011;65185;21.060;105.826;2024-03-29T13:23:09;59.83;;;39.15;;
76357;SDS011;65185;21.060;105.826;2024-03-29T13:25:37;65.40;;;47.40;;
76357;SDS011;65185;21.060;105.826;2024-03-29T13:28:05;60.08;;;42.15;;
76357;SDS011;65185;21.060;105.826;2024-03-29T13:30:33;52.78;;;35.80;;
76357;SDS011;65185;21.060;105.826;2024-03-29T13:33:02;49.85;;;33.83;;
76357;SDS011;65185;21.060;105.826;2024-03-29T13:35:29;53.13;;;35.10;;
76357;SDS011;65185;21.060;105.826;2024-03-29T13:37:59;47.40;;;34.50;;
76357;SDS011;65185;21.060;105.826;2024-03-29T13:40:26;48.53;;;34.10;;
76357;SDS011;65185;21.060;105.826;2024-03-29T13:42:54;47.95;;;33.35;;
76357;SDS011;65185;21.060;105.826;2024-03-29T13:45:21;46.00;;;33.65;;
76357;SDS011;65185;21.060;105.826;2024-03-29T13:47:51;46.72;;;32.08;;
76357;SDS011;65185;21.060;105.826;2024-03-29T13:50:18;52.00;;;37.17;;
76357;SDS011;65185;21.060;105.826;2024-03-29T13:52:46;49.05;;;35.90;;
76357;SDS011;65185;21.060;105.826;2024-03-29T13:55:13;55.85;;;39.33;;
76357;SDS011;65185;21.060;105.826;2024-03-29T13:57:40;52.80;;;34.78;;
76357;SDS011;65185;21.060;105.826;2024-03-29T14:00:09;60.58;;;40.75;;
76357;SDS011;65185;21.060;105.826;2024-03-29T14:02:40;74.88;;;50.70;;
76357;SDS011;65185;21.060;105.826;2024-03-29T14:05:07;82.55;;;54.25;;
76357;SDS011;65185;21.060;105.826;2024-03-29T14:07:34;81.57;;;53.20;;
76357;SDS011;65185;21.060;105.826;2024-03-29T14:10:01;82.68;;;54.30;;
76357;SDS011;65185;21.060;105.826;2024-03-29T14:12:32;79.60;;;52.20;;
76357;SDS011;65185;21.060;105.826;2024-03-29T14:15:00;74.72;;;48.90;;
76357;SDS011;65185;21.060;105.826;2024-03-29T14:17:27;69.30;;;47.42;;
76357;SDS011;65185;21.060;105.826;2024-03-29T14:19:54;76.90;;;50.35;;
76357;SDS011;65185;21.060;105.826;2024-03-29T14:22:21;75.90;;;48.25;;
76357;SDS011;65185;21.060;105.826;2024-03-29T14:24:49;70.38;;;45.35;;
76357;SDS011;65185;21.060;105.826;2024-03-29T14:27:16;72.80;;;47.50;;
76357;SDS011;65185;21.060;105.826;2024-03-29T14:29:43;71.63;;;48.97;;